createdAt,value
2019-03-26T00:00:53.214Z,99052.08
2019-03-26T00:01:55.881Z,99048.50
2019-03-26T00:03:01.347Z,99045.84
2019-03-26T00:04:06.402Z,99049.86
2019-03-26T00:05:08.440Z,99049.86
2019-03-26T00:06:11.082Z,99054.70
2019-03-26T00:07:14.072Z,99055.26
2019-03-26T00:08:16.733Z,99046.39
2019-03-26T00:09:19.763Z,99044.19
2019-03-26T00:10:23.474Z,99037.68
2019-03-26T00:11:26.693Z,99047.44
2019-03-26T00:12:29.346Z,99035.56
2019-03-26T00:13:32.383Z,99035.56
2019-03-26T00:14:38.098Z,99048.53
2019-03-26T00:15:40.724Z,99040.95
2019-03-26T00:16:43.447Z,99044.98
2019-03-26T00:17:46.115Z,99035.56
2019-03-26T00:18:48.881Z,99039.34
2019-03-26T00:19:51.900Z,99042.86
2019-03-26T00:20:54.625Z,99039.36
2019-03-26T00:21:57.699Z,99040.98
2019-03-26T00:23:05.838Z,99048.23
2019-03-26T00:24:08.549Z,99048.23
2019-03-26T00:25:11.260Z,99039.64
2019-03-26T00:26:17.054Z,99043.70
2019-03-26T00:27:19.691Z,99043.72
2019-03-26T00:28:22.365Z,99039.95
2019-03-26T00:29:25.291Z,99042.36
2019-03-26T00:30:28.117Z,99031.56
2019-03-26T00:31:30.799Z,99039.13
2019-03-26T00:32:34.035Z,99042.63
2019-03-26T00:33:36.990Z,99040.42
2019-03-26T00:34:40.161Z,99037.44
2019-03-26T00:35:42.849Z,99038.03
2019-03-26T00:36:45.556Z,99046.41
2019-03-26T00:37:48.421Z,99039.13
2019-03-26T00:38:51.771Z,99039.13
2019-03-26T00:39:54.558Z,99044.49
2019-03-26T00:40:57.240Z,99043.11
2019-03-26T00:42:01.640Z,99043.11
2019-03-26T00:43:05.503Z,99043.97
2019-03-26T00:44:08.568Z,99041.53
2019-03-26T00:45:18.764Z,99040.44
2019-03-26T00:46:26.323Z,99038.02
2019-03-26T00:47:29.058Z,99047.73
2019-03-26T00:48:34.314Z,99044.47
2019-03-26T00:49:41.178Z,99038.02
2019-03-26T00:50:44.018Z,99047.75
2019-03-26T00:51:46.946Z,99040.98
2019-03-26T00:52:49.709Z,99052.60
2019-03-26T00:53:52.482Z,99052.60
2019-03-26T00:54:55.274Z,99056.89
2019-03-26T00:56:01.028Z,99056.89
2019-03-26T00:57:04.147Z,99051.23
2019-03-26T00:58:07.309Z,99057.66
2019-03-26T00:59:09.965Z,99058.50
2019-03-26T01:00:12.765Z,99058.50
2019-03-26T01:01:15.638Z,99057.38
2019-03-26T01:02:18.368Z,99046.83
2019-03-26T01:03:23.896Z,99046.83
2019-03-26T01:04:33.097Z,99062.25
2019-03-26T01:05:34.208Z,99061.97
2019-03-26T01:06:36.997Z,99061.97
2019-03-26T01:07:39.870Z,99064.68
2019-03-26T01:08:45.634Z,99068.45
2019-03-26T01:09:48.336Z,99068.17
2019-03-26T01:10:51.445Z,99065.47
2019-03-26T01:11:54.555Z,99065.47
2019-03-26T01:12:57.278Z,99073.30
2019-03-26T01:14:00.359Z,99079.47
2019-03-26T01:15:06.088Z,99072.20
2019-03-26T01:16:08.875Z,99073.78
2019-03-26T01:17:11.719Z,99076.77
2019-03-26T01:18:14.580Z,99070.30
2019-03-26T01:19:17.319Z,99076.23
2019-03-26T01:20:20.133Z,99076.23
2019-03-26T01:21:22.944Z,99077.34
2019-03-26T01:22:25.758Z,99072.47
2019-03-26T01:23:28.922Z,99071.61
2019-03-26T01:24:31.607Z,99071.61
2019-03-26T01:25:34.553Z,99070.01
2019-03-26T01:26:37.367Z,99076.77
2019-03-26T01:27:40.620Z,99074.36
2019-03-26T01:28:43.934Z,99076.49
2019-03-26T01:29:46.942Z,99065.97
2019-03-26T01:30:49.593Z,99077.55
2019-03-26T01:31:52.812Z,99066.42
2019-03-26T01:32:55.605Z,99065.06
2019-03-26T01:33:58.490Z,99065.06
2019-03-26T01:35:01.748Z,99070.47
2019-03-26T01:36:04.930Z,99076.22
2019-03-26T01:37:08.125Z,99077.34
2019-03-26T01:38:10.929Z,99082.95
2019-03-26T01:39:13.662Z,99085.94
2019-03-26T01:40:16.449Z,99084.33
2019-03-26T01:41:19.160Z,99088.14
2019-03-26T01:42:22.367Z,99089.50
2019-03-26T01:43:25.580Z,99090.27
2019-03-26T01:44:28.374Z,99090.84
2019-03-26T01:45:31.256Z,99085.70
2019-03-26T01:46:34.102Z,99090.00
2019-03-26T01:47:36.888Z,99093.45
2019-03-26T01:48:41.336Z,99091.08
2019-03-26T01:49:44.095Z,99091.58
2019-03-26T01:50:47.382Z,99083.23
2019-03-26T01:51:50.397Z,99083.80
2019-03-26T01:52:53.244Z,99087.30
2019-03-26T01:53:56.069Z,99087.30
2019-03-26T01:54:59.286Z,99085.92
2019-03-26T01:56:02.108Z,99082.17
2019-03-26T01:57:05.460Z,99085.94
2019-03-26T01:58:08.255Z,99079.75
2019-03-26T01:59:13.873Z,99072.17
2019-03-26T02:00:16.997Z,99084.33
2019-03-26T02:01:20.221Z,99090.21
2019-03-26T02:02:23.064Z,99083.45
2019-03-26T02:03:25.839Z,99090.28
2019-03-26T02:04:28.933Z,99075.39
2019-03-26T02:05:31.754Z,99082.16
2019-03-26T02:06:34.649Z,99082.16
2019-03-26T02:07:39.046Z,99081.86
2019-03-26T02:08:42.024Z,99087.25
2019-03-26T02:09:44.904Z,99092.12
2019-03-26T02:10:47.999Z,99085.34
2019-03-26T02:11:50.675Z,99086.70
2019-03-26T02:12:54.649Z,99087.59
2019-03-26T02:13:57.513Z,99085.18
2019-03-26T02:15:00.407Z,99083.02
2019-03-26T02:16:03.164Z,99087.88
2019-03-26T02:17:06.000Z,99087.88
2019-03-26T02:18:08.685Z,99077.38
2019-03-26T02:19:12.032Z,99077.38
2019-03-26T02:20:14.850Z,99074.84
2019-03-26T02:21:17.677Z,99081.61
2019-03-26T02:22:20.321Z,99079.19
2019-03-26T02:23:23.811Z,99078.41
2019-03-26T02:24:27.128Z,99079.23
2019-03-26T02:25:30.904Z,99079.23
2019-03-26T02:26:34.076Z,99080.56
2019-03-26T02:27:36.890Z,99074.67
2019-03-26T02:28:39.699Z,99078.69
2019-03-26T02:29:42.557Z,99075.19
2019-03-26T02:30:45.771Z,99082.20
2019-03-26T02:31:48.966Z,99082.98
2019-03-26T02:32:52.788Z,99082.77
2019-03-26T02:33:55.605Z,99082.77
2019-03-26T02:34:58.465Z,99086.77
2019-03-26T02:36:01.339Z,99083.27
2019-03-26T02:37:04.198Z,99084.34
2019-03-26T02:38:07.284Z,99083.00
2019-03-26T02:39:10.088Z,99080.56
2019-03-26T02:40:12.957Z,99088.65
2019-03-26T02:41:15.756Z,99081.92
2019-03-26T02:42:18.555Z,99082.19
2019-03-26T02:43:21.842Z,99089.97
2019-03-26T02:44:24.752Z,99090.55
2019-03-26T02:45:27.755Z,99083.19
2019-03-26T02:46:31.846Z,99077.80
2019-03-26T02:47:38.239Z,99077.80
2019-03-26T02:48:41.097Z,99091.89
2019-03-26T02:49:43.966Z,99089.16
2019-03-26T02:50:48.373Z,99087.57
2019-03-26T02:51:51.664Z,99084.28
2019-03-26T02:52:54.474Z,99084.28
2019-03-26T02:53:57.293Z,99094.30
2019-03-26T02:55:00.230Z,99098.35
2019-03-26T02:56:04.348Z,99095.66
2019-03-26T02:57:07.525Z,99095.36
2019-03-26T02:58:10.757Z,99093.20
2019-03-26T02:59:14.059Z,99092.10
2019-03-26T03:00:16.867Z,99097.27
2019-03-26T03:01:19.739Z,99092.96
2019-03-26T03:02:22.576Z,99092.16
2019-03-26T03:03:26.940Z,99098.34
2019-03-26T03:04:29.770Z,99095.94
2019-03-26T03:05:35.714Z,99092.66
2019-03-26T03:06:38.519Z,99091.31
2019-03-26T03:07:41.324Z,99090.49
2019-03-26T03:08:44.128Z,99088.31
2019-03-26T03:09:47.286Z,99089.05
2019-03-26T03:10:50.150Z,99100.70
2019-03-26T03:11:52.956Z,99095.30
2019-03-26T03:12:55.839Z,99096.13
2019-03-26T03:13:58.695Z,99096.13
2019-03-26T03:15:01.551Z,99091.02
2019-03-26T03:16:04.800Z,99085.59
2019-03-26T03:17:08.049Z,99086.42
2019-03-26T03:18:11.228Z,99092.64
2019-03-26T03:19:15.901Z,99094.27
2019-03-26T03:20:18.821Z,99095.92
2019-03-26T03:21:21.698Z,99089.42
2019-03-26T03:22:26.070Z,99086.97
2019-03-26T03:23:29.048Z,99096.40
2019-03-26T03:24:31.835Z,99091.27
2019-03-26T03:25:35.723Z,99093.72
2019-03-26T03:26:39.293Z,99092.91
2019-03-26T03:27:42.123Z,99095.06
2019-03-26T03:28:45.386Z,99098.90
2019-03-26T03:29:48.208Z,99094.80
2019-03-26T03:30:51.005Z,99100.47
2019-03-26T03:31:53.880Z,99099.97
2019-03-26T03:32:57.475Z,99098.86
2019-03-26T03:34:00.354Z,99098.31
2019-03-26T03:35:03.177Z,99099.95
2019-03-26T03:36:06.131Z,99097.55
2019-03-26T03:37:08.946Z,99094.31
2019-03-26T03:38:11.753Z,99092.41
2019-03-26T03:39:14.564Z,99088.06
2019-03-26T03:40:17.370Z,99088.06
2019-03-26T03:41:20.291Z,99092.16
2019-03-26T03:42:23.082Z,99092.17
2019-03-26T03:43:26.376Z,99089.20
2019-03-26T03:44:29.029Z,99089.20
2019-03-26T03:45:32.428Z,99104.84
2019-03-26T03:46:35.247Z,99094.05
2019-03-26T03:47:38.064Z,99102.67
2019-03-26T03:48:40.870Z,99097.80
2019-03-26T03:49:46.670Z,99098.36
2019-03-26T03:50:49.720Z,99095.67
2019-03-26T03:51:53.091Z,99097.30
2019-03-26T03:52:56.260Z,99099.17
2019-03-26T03:53:59.534Z,99089.98
2019-03-26T03:55:02.329Z,99095.64
2019-03-26T03:56:05.387Z,99092.64
2019-03-26T03:57:08.269Z,99092.64
2019-03-26T03:58:11.383Z,99104.50
2019-03-26T03:59:14.183Z,99110.45
2019-03-26T04:00:17.415Z,99110.45
2019-03-26T04:01:20.305Z,99114.24
2019-03-26T04:02:23.123Z,99106.14
2019-03-26T04:03:26.346Z,99114.80
2019-03-26T04:04:31.143Z,99106.12
2019-03-26T04:05:33.943Z,99116.36
2019-03-26T04:06:36.770Z,99119.06
2019-03-26T04:07:39.633Z,99119.06
2019-03-26T04:08:42.488Z,99118.77
2019-03-26T04:09:45.325Z,99120.94
2019-03-26T04:10:48.473Z,99126.58
2019-03-26T04:11:51.290Z,99122.50
2019-03-26T04:12:54.160Z,99113.56
2019-03-26T04:13:56.977Z,99114.66
2019-03-26T04:14:59.780Z,99114.66
2019-03-26T04:16:03.812Z,99123.29
2019-03-26T04:17:07.007Z,99118.45
2019-03-26T04:18:09.798Z,99125.13
2019-03-26T04:19:12.591Z,99125.13
2019-03-26T04:20:15.393Z,99132.70
2019-03-26T04:21:18.527Z,99130.31
2019-03-26T04:22:21.388Z,99130.06
2019-03-26T04:23:24.478Z,99130.06
2019-03-26T04:24:27.443Z,99132.48
2019-03-26T04:25:30.148Z,99133.62
2019-03-26T04:26:33.537Z,99133.81
2019-03-26T04:27:38.561Z,99136.52
2019-03-26T04:28:41.802Z,99136.21
2019-03-26T04:29:44.854Z,99135.11
2019-03-26T04:30:47.718Z,99136.27
2019-03-26T04:31:50.518Z,99136.27
2019-03-26T04:32:53.338Z,99141.09
2019-03-26T04:33:56.529Z,99135.13
2019-03-26T04:34:59.418Z,99138.42
2019-03-26T04:36:03.005Z,99139.22
2019-03-26T04:37:05.675Z,99137.88
2019-03-26T04:38:08.939Z,99133.58
2019-03-26T04:39:11.746Z,99137.86
2019-03-26T04:40:14.907Z,99137.88
2019-03-26T04:41:17.775Z,99133.84
2019-03-26T04:42:20.893Z,99138.42
2019-03-26T04:43:24.089Z,99138.42
2019-03-26T04:44:27.359Z,99141.38
2019-03-26T04:45:30.627Z,99141.38
2019-03-26T04:46:33.855Z,99134.34
2019-03-26T04:47:39.611Z,99137.38
2019-03-26T04:48:42.574Z,99137.38
2019-03-26T04:49:45.373Z,99153.58
2019-03-26T04:50:48.164Z,99144.14
2019-03-26T04:51:51.044Z,99144.95
2019-03-26T04:52:53.853Z,99149.56
2019-03-26T04:53:56.655Z,99136.64
2019-03-26T04:54:59.625Z,99143.61
2019-03-26T04:56:02.843Z,99141.98
2019-03-26T04:57:05.991Z,99147.67
2019-03-26T04:58:08.669Z,99137.67
2019-03-26T04:59:11.321Z,99148.50
2019-03-26T05:00:14.126Z,99148.50
2019-03-26T05:01:17.529Z,99154.70
2019-03-26T05:02:20.698Z,99151.73
2019-03-26T05:03:23.524Z,99142.84
2019-03-26T05:04:26.181Z,99142.84
2019-03-26T05:05:29.324Z,99146.61
2019-03-26T05:06:37.806Z,99150.91
2019-03-26T05:07:36.487Z,99151.72
2019-03-26T05:08:39.182Z,99148.72
2019-03-26T05:09:42.155Z,99153.59
2019-03-26T05:10:45.221Z,99154.39
2019-03-26T05:11:47.908Z,99150.34
2019-03-26T05:12:50.929Z,99153.86
2019-03-26T05:13:53.811Z,99153.86
2019-03-26T05:14:56.476Z,99158.45
2019-03-26T05:15:59.209Z,99157.13
2019-03-26T05:17:01.927Z,99160.93
2019-03-26T05:18:04.647Z,99168.20
2019-03-26T05:19:07.607Z,99164.72
2019-03-26T05:20:10.281Z,99160.69
2019-03-26T05:21:13.377Z,99161.77
2019-03-26T05:22:23.958Z,99159.64
2019-03-26T05:23:20.453Z,99157.48
2019-03-26T05:24:24.257Z,99157.49
2019-03-26T05:25:27.586Z,99147.25
2019-03-26T05:26:30.326Z,99146.13
2019-03-26T05:27:44.863Z,99143.69
2019-03-26T05:28:38.619Z,99135.34
2019-03-26T05:29:41.344Z,99134.50
2019-03-26T05:30:44.464Z,99140.71
2019-03-26T05:31:47.418Z,99141.78
2019-03-26T05:32:50.314Z,99141.78
2019-03-26T05:33:53.009Z,99140.63
2019-03-26T05:34:55.659Z,99151.93
2019-03-26T05:35:58.300Z,99150.55
2019-03-26T05:37:01.150Z,99152.18
2019-03-26T05:38:04.436Z,99149.78
2019-03-26T05:39:07.330Z,99155.39
2019-03-26T05:40:10.056Z,99155.39
2019-03-26T05:41:13.263Z,99150.28
2019-03-26T05:42:16.064Z,99150.28
2019-03-26T05:43:20.429Z,99144.84
2019-03-26T05:44:26.384Z,99152.65
2019-03-26T05:45:29.223Z,99151.31
2019-03-26T05:46:32.198Z,99163.77
2019-03-26T05:47:35.524Z,99149.44
2019-03-26T05:48:39.984Z,99149.44
2019-03-26T05:49:43.241Z,99159.22
2019-03-26T05:50:46.336Z,99156.77
2019-03-26T05:51:49.154Z,99151.91
2019-03-26T05:52:53.063Z,99159.47
2019-03-26T05:53:58.977Z,99159.47
2019-03-26T05:55:02.115Z,99158.62
2019-03-26T05:56:08.158Z,99158.35
2019-03-26T05:57:11.236Z,99161.86
2019-03-26T05:58:14.078Z,99154.81
2019-03-26T05:59:17.077Z,99151.88
2019-03-26T06:00:22.753Z,99151.88
2019-03-26T06:01:25.673Z,99158.38
2019-03-26T06:02:28.537Z,99156.70
2019-03-26T06:03:36.114Z,99156.70
2019-03-26T06:04:40.696Z,99167.17
2019-03-26T06:05:43.511Z,99163.14
2019-03-26T06:06:46.342Z,99165.91
2019-03-26T06:07:49.431Z,99165.91
2019-03-26T06:08:52.230Z,99167.20
2019-03-26T06:09:56.436Z,99178.80
2019-03-26T06:10:59.327Z,99174.22
2019-03-26T06:12:03.252Z,99174.52
2019-03-26T06:13:06.159Z,99181.30
2019-03-26T06:14:08.997Z,99181.30
2019-03-26T06:15:12.701Z,99174.58
2019-03-26T06:16:16.891Z,99174.58
2019-03-26T06:17:20.073Z,99172.55
2019-03-26T06:18:24.344Z,99177.96
2019-03-26T06:19:27.239Z,99171.83
2019-03-26T06:20:30.523Z,99163.16
2019-03-26T06:21:33.750Z,99165.09
2019-03-26T06:22:37.925Z,99166.73
2019-03-26T06:23:41.124Z,99172.41
2019-03-26T06:24:44.589Z,99173.50
2019-03-26T06:25:50.972Z,99176.19
2019-03-26T06:26:53.853Z,99166.17
2019-03-26T06:27:56.708Z,99168.85
2019-03-26T06:29:01.208Z,99171.30
2019-03-26T06:43:48.543Z,99164.77
2019-03-26T06:44:51.431Z,99171.72
2019-03-26T06:45:54.261Z,99176.26
2019-03-26T06:46:57.458Z,99172.82
2019-03-26T06:48:03.971Z,99172.82
2019-03-26T06:49:07.000Z,99164.75
2019-03-26T06:50:11.807Z,99170.67
2019-03-26T06:51:15.062Z,99179.91
2019-03-26T06:52:18.831Z,99169.97
2019-03-26T06:53:21.699Z,99172.38
2019-03-26T06:54:27.530Z,99175.84
2019-03-26T06:55:30.887Z,99173.42
2019-03-26T06:56:34.089Z,99174.28
2019-03-26T06:57:38.583Z,99174.28
2019-03-26T06:58:42.754Z,99183.70
2019-03-26T06:59:46.855Z,99181.56
2019-03-26T07:00:51.646Z,99179.93
2019-03-26T07:01:54.831Z,99183.69
2019-03-26T07:02:58.070Z,99187.73
2019-03-26T07:04:00.939Z,99186.58
2019-03-26T07:05:04.107Z,99186.58
2019-03-26T07:06:08.689Z,99180.09
2019-03-26T07:07:11.480Z,99184.22
2019-03-26T07:08:15.602Z,99184.22
2019-03-26T07:09:18.774Z,99193.05
2019-03-26T07:10:21.611Z,99190.39
2019-03-26T07:11:24.934Z,99196.09
2019-03-26T07:12:28.753Z,99191.72
2019-03-26T07:13:33.977Z,99198.52
2019-03-26T07:14:36.634Z,99199.86
2019-03-26T07:15:39.503Z,99206.92
2019-03-26T07:16:43.685Z,99200.67
2019-03-26T07:17:46.497Z,99201.41
2019-03-26T07:18:49.405Z,99201.41
2019-03-26T07:19:52.415Z,99211.16
2019-03-26T07:20:55.569Z,99224.63
2019-03-26T07:21:58.532Z,99221.73
2019-03-26T07:23:01.448Z,99221.73
2019-03-26T07:24:04.746Z,99217.64
2019-03-26T07:25:07.636Z,99218.50
2019-03-26T07:26:10.627Z,99218.50
2019-03-26T07:27:17.410Z,99220.39
2019-03-26T07:28:20.706Z,99225.29
2019-03-26T07:29:23.597Z,99225.02
2019-03-26T07:30:28.215Z,99226.60
2019-03-26T07:31:31.836Z,99226.33
2019-03-26T07:32:34.682Z,99214.36
2019-03-26T07:33:38.269Z,99225.52
2019-03-26T07:34:41.203Z,99218.53
2019-03-26T07:35:44.455Z,99218.53
2019-03-26T07:36:47.415Z,99219.80
2019-03-26T07:37:50.236Z,99218.99
2019-03-26T07:38:54.219Z,99224.55
2019-03-26T07:40:00.467Z,99235.36
2019-03-26T07:41:03.606Z,99235.41
2019-03-26T07:42:08.815Z,99235.41
2019-03-26T07:43:11.813Z,99241.06
2019-03-26T07:44:17.156Z,99251.22
2019-03-26T07:45:23.521Z,99251.00
2019-03-26T07:46:26.801Z,99255.81
2019-03-26T07:47:30.911Z,99249.88
2019-03-26T07:48:33.826Z,99249.88
2019-03-26T07:49:36.660Z,99256.27
2019-03-26T07:50:43.142Z,99256.27
2019-03-26T07:51:46.430Z,99259.05
2019-03-26T07:52:49.364Z,99257.96
2019-03-26T07:53:52.186Z,99257.96
2019-03-26T07:54:57.270Z,99258.58
2019-03-26T07:56:00.199Z,99260.44
2019-03-26T07:57:07.285Z,99255.55
2019-03-26T07:58:11.280Z,99250.80
2019-03-26T07:59:14.178Z,99244.86
2019-03-26T08:00:17.109Z,99244.86
2019-03-26T08:01:20.429Z,99246.00
2019-03-26T08:02:23.775Z,99252.74
2019-03-26T08:03:26.637Z,99247.57
2019-03-26T08:04:31.222Z,99250.84
2019-03-26T08:05:34.127Z,99250.84
2019-03-26T08:06:40.110Z,99251.41
2019-03-26T08:07:43.899Z,99254.39
2019-03-26T08:08:46.742Z,99242.53
2019-03-26T08:09:51.473Z,99253.29
2019-03-26T08:10:54.834Z,99251.64
2019-03-26T08:11:58.112Z,99247.16
2019-03-26T08:13:01.023Z,99256.90
2019-03-26T08:14:06.093Z,99252.96
2019-03-26T08:15:08.893Z,99252.96
2019-03-26T08:16:12.139Z,99247.84
2019-03-26T08:17:15.439Z,99245.33
2019-03-26T08:18:18.313Z,99256.41
2019-03-26T08:19:21.494Z,99253.20
2019-03-26T08:20:24.460Z,99253.20
2019-03-26T08:21:27.378Z,99255.55
2019-03-26T08:22:30.204Z,99263.09
2019-03-26T08:23:33.451Z,99258.29
2019-03-26T08:24:36.395Z,99261.18
2019-03-26T08:25:39.215Z,99262.52
2019-03-26T08:26:43.210Z,99255.59
2019-03-26T08:27:46.063Z,99257.67
2019-03-26T08:28:48.919Z,99257.67
2019-03-26T08:29:52.173Z,99266.80
2019-03-26T08:30:54.995Z,99265.16
2019-03-26T08:31:57.994Z,99261.60
2019-03-26T08:33:00.774Z,99265.76
2019-03-26T08:34:03.571Z,99267.56
2019-03-26T08:35:06.537Z,99278.33
2019-03-26T08:36:14.489Z,99278.33
2019-03-26T08:37:17.306Z,99280.58
2019-03-26T08:38:20.128Z,99280.58
2019-03-26T08:39:25.491Z,99280.72
2019-03-26T08:40:27.485Z,99280.72
2019-03-26T08:41:30.758Z,99277.37
2019-03-26T08:42:39.418Z,99277.37
2019-03-26T08:43:44.418Z,99283.84
2019-03-26T08:44:47.261Z,99284.73
2019-03-26T08:45:53.175Z,99276.98
2019-03-26T08:46:58.732Z,99276.98
2019-03-26T08:48:01.567Z,99280.00
2019-03-26T08:49:07.614Z,99281.94
2019-03-26T08:50:10.458Z,99287.27
2019-03-26T08:51:13.391Z,99284.80
2019-03-26T08:52:16.675Z,99278.33
2019-03-26T08:53:19.511Z,99286.48
2019-03-26T08:54:29.115Z,99286.78
2019-03-26T08:55:35.308Z,99281.19
2019-03-26T08:56:42.906Z,99281.19
2019-03-26T08:57:45.579Z,99279.36
2019-03-26T08:58:48.522Z,99276.95
2019-03-26T08:59:51.434Z,99273.98
2019-03-26T09:00:59.033Z,99282.59
2019-03-26T09:02:01.832Z,99281.31
2019-03-26T09:03:04.782Z,99275.07
2019-03-26T09:04:07.607Z,99278.64
2019-03-26T09:05:10.548Z,99279.19
2019-03-26T09:06:16.194Z,99279.19
2019-03-26T09:07:19.443Z,99279.23
2019-03-26T09:08:25.621Z,99277.97
2019-03-26T09:09:27.044Z,99281.44
2019-03-26T09:10:29.861Z,99275.26
2019-03-26T09:11:33.587Z,99271.68
2019-03-26T09:12:39.662Z,99283.78
2019-03-26T09:13:45.720Z,99280.42
2019-03-26T09:14:52.058Z,99280.27
2019-03-26T09:15:55.446Z,99280.27
2019-03-26T09:16:58.276Z,99281.15
2019-03-26T09:18:03.406Z,99277.97
2019-03-26T09:19:09.470Z,99272.34
2019-03-26T09:20:12.923Z,99272.34
2019-03-26T09:21:16.150Z,99263.36
2019-03-26T09:22:23.494Z,99258.16
2019-03-26T09:23:26.265Z,99260.08
2019-03-26T09:24:29.559Z,99256.67
2019-03-26T09:25:32.413Z,99257.56
2019-03-26T09:26:38.071Z,99253.28
2019-03-26T09:27:42.896Z,99253.28
2019-03-26T09:28:49.111Z,99261.26
2019-03-26T09:30:05.030Z,99261.26
2019-03-26T09:31:07.627Z,99263.51
2019-03-26T09:32:12.240Z,99262.97
2019-03-26T09:33:19.241Z,99261.55
2019-03-26T09:34:19.580Z,99259.02
2019-03-26T09:35:24.102Z,99254.63
2019-03-26T09:36:29.412Z,99260.26
2019-03-26T09:37:32.215Z,99251.57
2019-03-26T09:38:40.356Z,99251.57
2019-03-26T09:39:45.674Z,99261.92
2019-03-26T09:40:50.354Z,99258.98
2019-03-26T09:41:53.274Z,99260.67
2019-03-26T09:42:56.089Z,99266.09
2019-03-26T09:44:12.028Z,99269.97
2019-03-26T09:45:15.559Z,99257.28
2019-03-26T09:46:27.447Z,99257.28
2019-03-26T09:47:30.808Z,99267.02
2019-03-26T09:48:34.183Z,99267.57
2019-03-26T09:49:37.014Z,99269.98
2019-03-26T09:50:44.278Z,99259.64
2019-03-26T09:51:47.140Z,99268.33
2019-03-26T09:52:50.534Z,99263.55
2019-03-26T09:53:53.374Z,99262.70
2019-03-26T09:54:56.205Z,99262.70
2019-03-26T09:56:01.359Z,99258.12
2019-03-26T09:57:04.543Z,99266.23
2019-03-26T09:58:07.828Z,99261.13
2019-03-26T09:59:10.976Z,99258.45
2019-03-26T10:00:14.264Z,99256.49
2019-03-26T10:01:19.775Z,99261.35
2019-03-26T10:02:22.579Z,99267.60
2019-03-26T10:03:33.103Z,99264.36
2019-03-26T10:04:45.065Z,99261.47
2019-03-26T10:05:45.423Z,99261.20
2019-03-26T10:06:51.115Z,99256.35
2019-03-26T10:07:54.020Z,99252.06
2019-03-26T10:08:56.722Z,99258.83
2019-03-26T10:09:59.850Z,99249.38
2019-03-26T10:11:03.390Z,99253.58
2019-03-26T10:12:06.198Z,99251.03
2019-03-26T10:13:09.083Z,99251.03
2019-03-26T10:14:11.942Z,99249.27
2019-03-26T10:15:17.872Z,99247.75
2019-03-26T10:16:22.400Z,99239.64
2019-03-26T10:17:25.419Z,99248.58
2019-03-26T10:18:28.796Z,99247.50
2019-03-26T10:19:33.436Z,99247.74
2019-03-26T10:20:36.139Z,99236.13
2019-03-26T10:21:38.991Z,99236.13
2019-03-26T10:22:49.565Z,99246.95
2019-03-26T10:23:52.823Z,99253.44
2019-03-26T10:24:57.748Z,99246.70
2019-03-26T10:26:00.559Z,99251.01
2019-03-26T10:27:06.580Z,99253.44
2019-03-26T10:28:09.380Z,99253.98
2019-03-26T10:29:24.154Z,99252.63
2019-03-26T10:30:18.339Z,99244.52
2019-03-26T10:31:25.423Z,99241.73
2019-03-26T10:32:28.276Z,99237.15
2019-03-26T10:33:34.113Z,99247.13
2019-03-26T10:34:38.630Z,99244.38
2019-03-26T10:35:41.816Z,99252.52
2019-03-26T10:36:47.338Z,99252.23
2019-03-26T10:37:50.467Z,99250.89
2019-03-26T10:39:05.469Z,99250.34
2019-03-26T10:40:03.061Z,99252.48
2019-03-26T10:41:05.904Z,99258.17
2019-03-26T10:42:09.025Z,99254.14
2019-03-26T10:43:13.457Z,99250.36
2019-03-26T10:44:16.310Z,99240.65
2019-03-26T10:45:19.278Z,99244.75
2019-03-26T10:46:22.408Z,99253.98
2019-03-26T10:47:29.272Z,99253.98
2019-03-26T10:48:35.002Z,99250.19
2019-03-26T10:49:37.825Z,99246.41
2019-03-26T10:50:42.890Z,99246.41
2019-03-26T10:51:47.849Z,99243.17
2019-03-26T10:52:53.948Z,99243.67
2019-03-26T10:53:59.356Z,99252.07
2019-03-26T10:55:03.835Z,99240.74
2019-03-26T10:56:07.447Z,99240.74
2019-03-26T10:57:10.268Z,99247.77
2019-03-26T10:58:15.613Z,99256.16
2019-03-26T10:59:24.246Z,99249.93
2019-03-26T11:00:33.950Z,99252.63
2019-03-26T11:01:36.932Z,99252.63
2019-03-26T11:02:39.732Z,99242.61
2019-03-26T11:03:42.643Z,99236.14
2019-03-26T11:04:45.413Z,99232.59
2019-03-26T11:05:50.795Z,99229.59
2019-03-26T11:06:53.821Z,99222.53
2019-03-26T11:08:27.207Z,99226.08
2019-03-26T11:09:18.931Z,99226.08
2019-03-26T11:10:10.677Z,99220.16
2019-03-26T11:11:24.106Z,99223.94
2019-03-26T11:12:27.048Z,99223.13
2019-03-26T11:13:32.099Z,99228.23
2019-03-26T11:14:34.812Z,99223.91
2019-03-26T11:15:37.763Z,99224.17
2019-03-26T11:16:43.276Z,99224.69
2019-03-26T11:17:48.322Z,99230.11
2019-03-26T11:18:51.445Z,99218.44
2019-03-26T11:19:54.108Z,99218.44
2019-03-26T11:21:04.821Z,99221.13
2019-03-26T11:22:08.238Z,99212.27
2019-03-26T11:23:10.929Z,99212.09
2019-03-26T11:24:15.368Z,99212.09
2019-03-26T11:25:36.152Z,99209.35
2019-03-26T11:26:41.424Z,99203.42
2019-03-26T11:27:51.849Z,99193.78
2019-03-26T11:29:02.276Z,99180.34
2019-03-26T11:43:01.385Z,99148.17
2019-03-26T11:44:06.465Z,99167.80
2019-03-26T11:45:10.083Z,99170.92
2019-03-26T11:46:14.994Z,99175.27
2019-03-26T11:47:17.623Z,99183.09
2019-03-26T11:48:20.874Z,99183.09
2019-03-26T11:49:23.950Z,99171.97
2019-03-26T11:50:30.249Z,99171.97
2019-03-26T11:51:33.855Z,99168.76
2019-03-26T11:52:38.487Z,99175.01
2019-03-26T11:53:41.707Z,99175.01
2019-03-26T11:54:45.031Z,99167.45
2019-03-26T11:55:50.770Z,99168.91
2019-03-26T11:56:55.633Z,99168.91
2019-03-26T11:58:06.147Z,99167.42
2019-03-26T11:59:08.724Z,99169.03
2019-03-26T12:00:16.572Z,99183.91
2019-03-26T12:01:22.282Z,99176.75
2019-03-26T12:02:28.244Z,99174.09
2019-03-26T12:03:31.651Z,99175.65
2019-03-26T12:04:34.663Z,99179.94
2019-03-26T12:05:37.473Z,99178.23
2019-03-26T12:06:44.310Z,99178.23
2019-03-26T12:07:47.298Z,99179.08
2019-03-26T12:08:50.182Z,99163.13
2019-03-26T12:09:55.760Z,99191.36
2019-03-26T12:10:59.676Z,99193.97
2019-03-26T12:12:07.313Z,99193.97
2019-03-26T12:13:10.135Z,99191.33
2019-03-26T12:14:12.958Z,99192.87
2019-03-26T12:15:17.817Z,99192.87
2019-03-26T12:16:20.670Z,99185.97
2019-03-26T12:17:24.698Z,99181.55
2019-03-26T12:18:31.159Z,99181.55
2019-03-26T12:19:34.042Z,99178.44
2019-03-26T12:20:36.916Z,99172.98
2019-03-26T12:21:39.838Z,99180.16
2019-03-26T12:22:42.704Z,99180.16
2019-03-26T12:23:45.973Z,99176.41
2019-03-26T12:24:48.897Z,99171.33
2019-03-26T12:25:52.230Z,99182.97
2019-03-26T12:27:02.115Z,99181.54
2019-03-26T12:28:06.680Z,99181.29
2019-03-26T12:29:19.332Z,99186.58
2019-03-26T12:30:22.199Z,99186.58
2019-03-26T12:31:25.148Z,99168.31
2019-03-26T12:32:28.627Z,99176.45
2019-03-26T12:33:33.280Z,99177.77
2019-03-26T12:34:38.569Z,99180.30
2019-03-26T12:35:41.734Z,99180.30
2019-03-26T12:36:44.578Z,99179.94
2019-03-26T12:37:47.492Z,99178.28
2019-03-26T12:38:50.407Z,99169.94
2019-03-26T12:39:59.481Z,99173.13
2019-03-26T12:40:57.904Z,99167.41
2019-03-26T12:42:02.682Z,99169.67
2019-03-26T12:43:15.239Z,99173.69
2019-03-26T12:44:15.461Z,99173.69
2019-03-26T12:45:21.074Z,99168.52
2019-03-26T12:46:28.000Z,99170.05
2019-03-26T12:47:30.630Z,99170.05
2019-03-26T12:48:33.976Z,99157.22
2019-03-26T12:49:46.596Z,99149.36
2019-03-26T12:50:55.002Z,99132.14
2019-03-26T12:51:58.662Z,99124.13
2019-03-26T12:53:01.470Z,99124.13
2019-03-26T12:54:04.650Z,99139.55
2019-03-26T12:55:07.457Z,99140.84
2019-03-26T12:56:12.040Z,99119.66